sensor_id;sensor_type;location;lat;lon;timestamp;P1;durP1;ratioP1;P2;durP2;ratioP2
1410;SDS011;700;51.906;8.404;2023-06-10T00:01:16;7.77;;;5.57;;
1410;SDS011;700;51.906;8.404;2023-06-10T00:06:19;9.63;;;6.17;;
1410;SDS011;700;51.906;8.404;2023-06-10T00:11:26;7.83;;;6.37;;
1410;SDS011;700;51.906;8.404;2023-06-10T00:16:27;8.90;;;5.80;;
1410;SDS011;700;51.906;8.404;2023-06-10T00:21:28;7.40;;;6.07;;
1410;SDS011;700;51.906;8.404;2023-06-10T00:26:30;7.37;;;5.77;;
1410;SDS011;700;51.906;8.404;2023-06-10T00:31:30;8.37;;;5.80;;
1410;SDS011;700;51.906;8.404;2023-06-10T00:36:31;9.73;;;5.40;;
1410;SDS011;700;51.906;8.404;2023-06-10T00:41:32;7.77;;;5.80;;
1410;SDS011;700;51.906;8.404;2023-06-10T00:46:34;6.40;;;5.17;;
1410;SDS011;700;51.906;8.404;2023-06-10T00:51:35;6.43;;;5.40;;
1410;SDS011;700;51.906;8.404;2023-06-10T00:56:39;5.90;;;5.00;;
1410;SDS011;700;51.906;8.404;2023-06-10T01:01:43;7.00;;;5.47;;
1410;SDS011;700;51.906;8.404;2023-06-10T01:17:54;8.03;;;5.40;;
1410;SDS011;700;51.906;8.404;2023-06-10T01:22:55;9.27;;;5.80;;
1410;SDS011;700;51.906;8.404;2023-06-10T01:33:09;6.73;;;5.60;;
1410;SDS011;700;51.906;8.404;2023-06-10T01:38:12;8.17;;;5.23;;
1410;SDS011;700;51.906;8.404;2023-06-10T01:43:14;7.87;;;5.13;;
1410;SDS011;700;51.906;8.404;2023-06-10T01:48:15;6.90;;;5.10;;
1410;SDS011;700;51.906;8.404;2023-06-10T01:53:17;6.07;;;4.70;;
1410;SDS011;700;51.906;8.404;2023-06-10T01:58:18;5.20;;;4.10;;
1410;SDS011;700;51.906;8.404;2023-06-10T02:03:21;6.77;;;4.77;;
1410;SDS011;700;51.906;8.404;2023-06-10T02:08:22;7.23;;;5.03;;
1410;SDS011;700;51.906;8.404;2023-06-10T02:13:23;6.13;;;4.20;;
1410;SDS011;700;51.906;8.404;2023-06-10T02:18:23;6.80;;;4.43;;
1410;SDS011;700;51.906;8.404;2023-06-10T02:23:27;5.80;;;4.10;;
1410;SDS011;700;51.906;8.404;2023-06-10T02:28:30;7.70;;;4.60;;
1410;SDS011;700;51.906;8.404;2023-06-10T02:33:30;5.70;;;4.27;;
1410;SDS011;700;51.906;8.404;2023-06-10T02:38:40;6.93;;;4.60;;
1410;SDS011;700;51.906;8.404;2023-06-10T02:43:40;6.87;;;4.53;;
1410;SDS011;700;51.906;8.404;2023-06-10T02:48:41;9.10;;;5.00;;
1410;SDS011;700;51.906;8.404;2023-06-10T02:53:43;7.60;;;5.30;;
1410;SDS011;700;51.906;8.404;2023-06-10T02:58:44;7.90;;;4.80;;
1410;SDS011;700;51.906;8.404;2023-06-10T03:03:45;8.57;;;5.43;;
1410;SDS011;700;51.906;8.404;2023-06-10T03:08:49;8.30;;;4.70;;
1410;SDS011;700;51.906;8.404;2023-06-10T03:13:49;8.07;;;4.77;;
1410;SDS011;700;51.906;8.404;2023-06-10T03:18:52;6.87;;;4.00;;
1410;SDS011;700;51.906;8.404;2023-06-10T03:23:58;6.57;;;4.37;;
1410;SDS011;700;51.906;8.404;2023-06-10T03:29:01;7.97;;;4.93;;
1410;SDS011;700;51.906;8.404;2023-06-10T03:34:05;8.80;;;4.20;;
1410;SDS011;700;51.906;8.404;2023-06-10T03:39:06;6.53;;;4.47;;
1410;SDS011;700;51.906;8.404;2023-06-10T03:44:06;7.20;;;4.37;;
1410;SDS011;700;51.906;8.404;2023-06-10T03:49:07;7.83;;;4.50;;
1410;SDS011;700;51.906;8.404;2023-06-10T03:54:10;6.90;;;4.60;;
1410;SDS011;700;51.906;8.404;2023-06-10T03:59:11;6.50;;;3.93;;
1410;SDS011;700;51.906;8.404;2023-06-10T04:04:13;8.10;;;4.90;;
1410;SDS011;700;51.906;8.404;2023-06-10T04:09:15;6.20;;;5.20;;
1410;SDS011;700;51.906;8.404;2023-06-10T04:14:16;8.87;;;4.57;;
1410;SDS011;700;51.906;8.404;2023-06-10T04:19:17;6.10;;;4.33;;
1410;SDS011;700;51.906;8.404;2023-06-10T04:24:17;5.83;;;4.40;;
1410;SDS011;700;51.906;8.404;2023-06-10T04:29:18;5.77;;;4.07;;
1410;SDS011;700;51.906;8.404;2023-06-10T04:34:18;7.87;;;4.47;;
1410;SDS011;700;51.906;8.404;2023-06-10T04:39:19;6.73;;;4.17;;
1410;SDS011;700;51.906;8.404;2023-06-10T04:44:22;7.77;;;4.50;;
1410;SDS011;700;51.906;8.404;2023-06-10T04:49:25;6.80;;;4.80;;
1410;SDS011;700;51.906;8.404;2023-06-10T04:54:28;12.90;;;9.63;;
1410;SDS011;700;51.906;8.404;2023-06-10T04:59:32;6.57;;;3.73;;
1410;SDS011;700;51.906;8.404;2023-06-10T05:04:33;7.97;;;5.80;;
1410;SDS011;700;51.906;8.404;2023-06-10T05:09:36;7.23;;;4.50;;
1410;SDS011;700;51.906;8.404;2023-06-10T05:14:37;6.13;;;4.30;;
1410;SDS011;700;51.906;8.404;2023-06-10T05:19:37;6.23;;;4.50;;
1410;SDS011;700;51.906;8.404;2023-06-10T05:24:38;6.90;;;4.30;;
1410;SDS011;700;51.906;8.404;2023-06-10T05:29:41;7.20;;;4.30;;
1410;SDS011;700;51.906;8.404;2023-06-10T05:34:42;6.93;;;3.70;;
1410;SDS011;700;51.906;8.404;2023-06-10T05:39:45;6.70;;;4.00;;
1410;SDS011;700;51.906;8.404;2023-06-10T05:44:45;8.30;;;4.37;;
1410;SDS011;700;51.906;8.404;2023-06-10T05:49:46;10.30;;;6.63;;
1410;SDS011;700;51.906;8.404;2023-06-10T05:54:49;7.90;;;4.00;;
1410;SDS011;700;51.906;8.404;2023-06-10T05:59:50;7.37;;;4.33;;
1410;SDS011;700;51.906;8.404;2023-06-10T06:04:51;7.83;;;3.90;;
1410;SDS011;700;51.906;8.404;2023-06-10T06:09:56;6.57;;;3.57;;
1410;SDS011;700;51.906;8.404;2023-06-10T06:14:57;9.93;;;5.07;;
1410;SDS011;700;51.906;8.404;2023-06-10T06:19:57;5.60;;;4.00;;
1410;SDS011;700;51.906;8.404;2023-06-10T06:24:58;6.27;;;3.60;;
1410;SDS011;700;51.906;8.404;2023-06-10T06:30:01;6.10;;;3.67;;
1410;SDS011;700;51.906;8.404;2023-06-10T06:35:01;5.60;;;3.90;;
1410;SDS011;700;51.906;8.404;2023-06-10T06:40:02;5.20;;;3.27;;
1410;SDS011;700;51.906;8.404;2023-06-10T06:45:04;11.80;;;8.97;;
1410;SDS011;700;51.906;8.404;2023-06-10T06:50:05;5.40;;;3.50;;
1410;SDS011;700;51.906;8.404;2023-06-10T06:55:06;5.30;;;3.60;;
1410;SDS011;700;51.906;8.404;2023-06-10T07:00:09;7.13;;;3.63;;
1410;SDS011;700;51.906;8.404;2023-06-10T07:05:10;4.90;;;3.43;;
1410;SDS011;700;51.906;8.404;2023-06-10T07:10:11;6.00;;;3.37;;
1410;SDS011;700;51.906;8.404;2023-06-10T07:15:11;4.70;;;3.40;;
1410;SDS011;700;51.906;8.404;2023-06-10T07:20:12;6.37;;;3.40;;
1410;SDS011;700;51.906;8.404;2023-06-10T07:25:14;5.20;;;3.40;;
1410;SDS011;700;51.906;8.404;2023-06-10T07:30:16;7.90;;;3.00;;
1410;SDS011;700;51.906;8.404;2023-06-10T07:35:20;6.33;;;2.60;;
1410;SDS011;700;51.906;8.404;2023-06-10T07:40:20;6.87;;;3.00;;
1410;SDS011;700;51.906;8.404;2023-06-10T07:45:21;5.00;;;2.97;;
1410;SDS011;700;51.906;8.404;2023-06-10T07:50:25;4.30;;;2.90;;
1410;SDS011;700;51.906;8.404;2023-06-10T07:55:25;4.70;;;3.10;;
1410;SDS011;700;51.906;8.404;2023-06-10T08:00:26;4.33;;;2.60;;
1410;SDS011;700;51.906;8.404;2023-06-10T08:05:27;6.90;;;2.70;;
1410;SDS011;700;51.906;8.404;2023-06-10T08:10:30;4.97;;;2.33;;
1410;SDS011;700;51.906;8.404;2023-06-10T08:15:33;6.70;;;2.60;;
1410;SDS011;700;51.906;8.404;2023-06-10T08:20:33;5.50;;;3.27;;
1410;SDS011;700;51.906;8.404;2023-06-10T08:25:34;4.40;;;2.67;;
1410;SDS011;700;51.906;8.404;2023-06-10T08:30:34;3.67;;;2.77;;
1410;SDS011;700;51.906;8.404;2023-06-10T08:35:37;8.00;;;3.30;;
1410;SDS011;700;51.906;8.404;2023-06-10T08:40:38;6.27;;;3.47;;
1410;SDS011;700;51.906;8.404;2023-06-10T08:45:41;7.53;;;5.40;;
1410;SDS011;700;51.906;8.404;2023-06-10T08:50:48;5.20;;;3.20;;
1410;SDS011;700;51.906;8.404;2023-06-10T08:55:51;8.23;;;4.53;;
1410;SDS011;700;51.906;8.404;2023-06-10T09:00:55;6.47;;;3.33;;
1410;SDS011;700;51.906;8.404;2023-06-10T09:05:56;5.57;;;4.10;;
1410;SDS011;700;51.906;8.404;2023-06-10T09:10:58;5.80;;;3.53;;
1410;SDS011;700;51.906;8.404;2023-06-10T09:16:01;5.53;;;4.10;;
1410;SDS011;700;51.906;8.404;2023-06-10T09:21:02;4.57;;;3.40;;
1410;SDS011;700;51.906;8.404;2023-06-10T09:26:07;8.50;;;3.90;;
1410;SDS011;700;51.906;8.404;2023-06-10T09:31:11;6.20;;;3.73;;
1410;SDS011;700;51.906;8.404;2023-06-10T09:36:21;5.13;;;3.73;;
1410;SDS011;700;51.906;8.404;2023-06-10T09:41:34;7.40;;;5.03;;
1410;SDS011;700;51.906;8.404;2023-06-10T09:46:39;5.70;;;3.70;;
1410;SDS011;700;51.906;8.404;2023-06-10T09:51:49;6.23;;;4.20;;
1410;SDS011;700;51.906;8.404;2023-06-10T09:56:53;4.90;;;3.33;;
1410;SDS011;700;51.906;8.404;2023-06-10T10:01:56;7.07;;;3.50;;
1410;SDS011;700;51.906;8.404;2023-06-10T10:06:57;5.10;;;3.73;;
1410;SDS011;700;51.906;8.404;2023-06-10T10:11:59;6.27;;;3.97;;
1410;SDS011;700;51.906;8.404;2023-06-10T10:17:04;5.77;;;3.70;;
1410;SDS011;700;51.906;8.404;2023-06-10T10:22:12;5.33;;;3.90;;
1410;SDS011;700;51.906;8.404;2023-06-10T10:27:21;9.03;;;3.77;;
1410;SDS011;700;51.906;8.404;2023-06-10T10:32:35;6.50;;;4.40;;
1410;SDS011;700;51.906;8.404;2023-06-10T10:37:42;9.00;;;6.07;;
1410;SDS011;700;51.906;8.404;2023-06-10T10:42:44;4.47;;;3.37;;
1410;SDS011;700;51.906;8.404;2023-06-10T10:47:47;4.77;;;3.93;;
1410;SDS011;700;51.906;8.404;2023-06-10T10:58:05;4.87;;;3.77;;
1410;SDS011;700;51.906;8.404;2023-06-10T11:03:07;4.90;;;3.60;;
1410;SDS011;700;51.906;8.404;2023-06-10T11:08:14;6.63;;;4.47;;
1410;SDS011;700;51.906;8.404;2023-06-10T11:13:20;6.27;;;4.00;;
1410;SDS011;700;51.906;8.404;2023-06-10T11:18:26;6.47;;;4.47;;
1410;SDS011;700;51.906;8.404;2023-06-10T11:28:30;7.00;;;4.17;;
1410;SDS011;700;51.906;8.404;2023-06-10T11:33:33;6.20;;;4.40;;
1410;SDS011;700;51.906;8.404;2023-06-10T11:38:40;5.40;;;3.90;;
1410;SDS011;700;51.906;8.404;2023-06-10T11:43:43;4.23;;;3.83;;
1410;SDS011;700;51.906;8.404;2023-06-10T11:48:48;5.73;;;4.17;;
1410;SDS011;700;51.906;8.404;2023-06-10T11:53:53;4.47;;;4.03;;
1410;SDS011;700;51.906;8.404;2023-06-10T12:04:07;4.67;;;3.80;;
1410;SDS011;700;51.906;8.404;2023-06-10T12:09:16;4.30;;;3.80;;
1410;SDS011;700;51.906;8.404;2023-06-10T12:19:53;4.67;;;4.13;;
1410;SDS011;700;51.906;8.404;2023-06-10T12:24:57;4.47;;;3.60;;
1410;SDS011;700;51.906;8.404;2023-06-10T12:30:03;5.70;;;3.80;;
1410;SDS011;700;51.906;8.404;2023-06-10T12:35:06;7.83;;;4.23;;
1410;SDS011;700;51.906;8.404;2023-06-10T12:40:08;4.97;;;4.03;;
1410;SDS011;700;51.906;8.404;2023-06-10T12:45:09;5.87;;;4.97;;
1410;SDS011;700;51.906;8.404;2023-06-10T12:50:12;4.63;;;3.60;;
1410;SDS011;700;51.906;8.404;2023-06-10T12:55:13;5.20;;;4.00;;
1410;SDS011;700;51.906;8.404;2023-06-10T13:00:14;6.87;;;4.30;;
1410;SDS011;700;51.906;8.404;2023-06-10T13:05:15;5.03;;;4.17;;
1410;SDS011;700;51.906;8.404;2023-06-10T13:10:18;5.10;;;3.90;;
1410;SDS011;700;51.906;8.404;2023-06-10T13:15:26;5.60;;;4.30;;
1410;SDS011;700;51.906;8.404;2023-06-10T13:20:26;5.60;;;4.20;;
1410;SDS011;700;51.906;8.404;2023-06-10T13:25:29;5.13;;;4.07;;
1410;SDS011;700;51.906;8.404;2023-06-10T13:30:30;8.63;;;3.90;;
1410;SDS011;700;51.906;8.404;2023-06-10T13:35:30;5.20;;;4.20;;
1410;SDS011;700;51.906;8.404;2023-06-10T13:40:31;4.87;;;4.00;;
1410;SDS011;700;51.906;8.404;2023-06-10T13:45:34;5.37;;;4.50;;
1410;SDS011;700;51.906;8.404;2023-06-10T13:50:34;5.73;;;4.07;;
1410;SDS011;700;51.906;8.404;2023-06-10T13:55:37;5.80;;;5.00;;
1410;SDS011;700;51.906;8.404;2023-06-10T14:00:38;7.77;;;4.83;;
1410;SDS011;700;51.906;8.404;2023-06-10T14:05:41;5.87;;;4.60;;
1410;SDS011;700;51.906;8.404;2023-06-10T14:10:42;5.13;;;4.37;;
1410;SDS011;700;51.906;8.404;2023-06-10T14:15:42;9.87;;;4.70;;
1410;SDS011;700;51.906;8.404;2023-06-10T14:20:45;5.70;;;4.60;;
1410;SDS011;700;51.906;8.404;2023-06-10T14:25:48;8.13;;;5.17;;
1410;SDS011;700;51.906;8.404;2023-06-10T14:30:49;5.50;;;4.97;;
1410;SDS011;700;51.906;8.404;2023-06-10T14:35:52;6.00;;;4.63;;
1410;SDS011;700;51.906;8.404;2023-06-10T14:40:53;6.40;;;5.17;;
1410;SDS011;700;51.906;8.404;2023-06-10T14:45:55;6.30;;;5.13;;
1410;SDS011;700;51.906;8.404;2023-06-10T14:50:57;6.60;;;5.50;;
1410;SDS011;700;51.906;8.404;2023-06-10T14:55:57;7.00;;;5.50;;
1410;SDS011;700;51.906;8.404;2023-06-10T15:01:00;9.87;;;6.10;;
1410;SDS011;700;51.906;8.404;2023-06-10T15:06:00;6.70;;;5.50;;
1410;SDS011;700;51.906;8.404;2023-06-10T15:11:01;7.70;;;5.53;;
1410;SDS011;700;51.906;8.404;2023-06-10T15:16:02;5.67;;;4.87;;
1410;SDS011;700;51.906;8.404;2023-06-10T15:21:08;7.03;;;5.27;;
1410;SDS011;700;51.906;8.404;2023-06-10T15:26:09;7.10;;;5.70;;
1410;SDS011;700;51.906;8.404;2023-06-10T15:31:12;6.77;;;5.73;;
1410;SDS011;700;51.906;8.404;2023-06-10T15:36:12;8.60;;;6.07;;
1410;SDS011;700;51.906;8.404;2023-06-10T15:41:15;7.23;;;6.13;;
1410;SDS011;700;51.906;8.404;2023-06-10T15:46:16;6.73;;;5.83;;
1410;SDS011;700;51.906;8.404;2023-06-10T15:51:19;10.43;;;6.23;;
1410;SDS011;700;51.906;8.404;2023-06-10T15:56:25;8.13;;;5.83;;
1410;SDS011;700;51.906;8.404;2023-06-10T16:01:26;7.80;;;6.20;;
1410;SDS011;700;51.906;8.404;2023-06-10T16:06:27;6.53;;;5.83;;
1410;SDS011;700;51.906;8.404;2023-06-10T16:11:27;7.40;;;5.40;;
1410;SDS011;700;51.906;8.404;2023-06-10T16:16:30;8.43;;;6.10;;
1410;SDS011;700;51.906;8.404;2023-06-10T16:21:33;7.33;;;5.97;;
1410;SDS011;700;51.906;8.404;2023-06-10T16:26:36;7.47;;;6.53;;
1410;SDS011;700;51.906;8.404;2023-06-10T16:31:37;6.60;;;5.67;;
1410;SDS011;700;51.906;8.404;2023-06-10T16:36:38;8.80;;;6.40;;
1410;SDS011;700;51.906;8.404;2023-06-10T16:41:39;8.30;;;6.30;;
1410;SDS011;700;51.906;8.404;2023-06-10T16:46:39;9.27;;;6.23;;
1410;SDS011;700;51.906;8.404;2023-06-10T16:51:43;6.63;;;5.93;;
1410;SDS011;700;51.906;8.404;2023-06-10T16:56:43;7.60;;;6.60;;
1410;SDS011;700;51.906;8.404;2023-06-10T17:01:49;6.03;;;4.90;;
1410;SDS011;700;51.906;8.404;2023-06-10T17:06:49;9.87;;;7.07;;
1410;SDS011;700;51.906;8.404;2023-06-10T17:11:50;6.33;;;5.70;;
1410;SDS011;700;51.906;8.404;2023-06-10T17:16:53;7.10;;;6.10;;
1410;SDS011;700;51.906;8.404;2023-06-10T17:21:56;8.90;;;6.10;;
1410;SDS011;700;51.906;8.404;2023-06-10T17:26:57;10.23;;;5.83;;
1410;SDS011;700;51.906;8.404;2023-06-10T17:31:58;7.60;;;5.80;;
1410;SDS011;700;51.906;8.404;2023-06-10T17:37:01;6.53;;;5.87;;
1410;SDS011;700;51.906;8.404;2023-06-10T17:42:04;7.70;;;6.30;;
1410;SDS011;700;51.906;8.404;2023-06-10T17:47:05;6.90;;;5.80;;
1410;SDS011;700;51.906;8.404;2023-06-10T17:52:11;7.03;;;6.17;;
1410;SDS011;700;51.906;8.404;2023-06-10T17:57:14;7.53;;;6.70;;
1410;SDS011;700;51.906;8.404;2023-06-10T18:02:14;8.00;;;6.40;;
1410;SDS011;700;51.906;8.404;2023-06-10T18:07:17;7.53;;;6.17;;
1410;SDS011;700;51.906;8.404;2023-06-10T18:12:18;10.13;;;7.23;;
1410;SDS011;700;51.906;8.404;2023-06-10T18:17:21;9.20;;;6.93;;
1410;SDS011;700;51.906;8.404;2023-06-10T18:22:24;8.67;;;6.80;;
1410;SDS011;700;51.906;8.404;2023-06-10T18:27:25;6.57;;;5.90;;
1410;SDS011;700;51.906;8.404;2023-06-10T18:32:25;7.40;;;6.30;;
1410;SDS011;700;51.906;8.404;2023-06-10T18:37:28;8.67;;;6.80;;
1410;SDS011;700;51.906;8.404;2023-06-10T18:42:29;7.20;;;6.00;;
1410;SDS011;700;51.906;8.404;2023-06-10T18:47:30;7.30;;;6.43;;
1410;SDS011;700;51.906;8.404;2023-06-10T18:52:30;11.63;;;6.80;;
1410;SDS011;700;51.906;8.404;2023-06-10T18:57:31;8.83;;;7.57;;
1410;SDS011;700;51.906;8.404;2023-06-10T19:02:31;8.40;;;6.70;;
1410;SDS011;700;51.906;8.404;2023-06-10T19:07:34;8.27;;;6.73;;
1410;SDS011;700;51.906;8.404;2023-06-10T19:12:35;7.30;;;6.50;;
1410;SDS011;700;51.906;8.404;2023-06-10T19:17:35;7.13;;;6.23;;
1410;SDS011;700;51.906;8.404;2023-06-10T19:22:38;8.20;;;6.07;;
1410;SDS011;700;51.906;8.404;2023-06-10T19:27:39;7.77;;;6.87;;
1410;SDS011;700;51.906;8.404;2023-06-10T19:32:42;10.17;;;5.90;;
1410;SDS011;700;51.906;8.404;2023-06-10T19:37:43;6.90;;;6.07;;
1410;SDS011;700;51.906;8.404;2023-06-10T19:42:43;7.40;;;6.50;;
1410;SDS011;700;51.906;8.404;2023-06-10T19:47:44;6.87;;;5.80;;
1410;SDS011;700;51.906;8.404;2023-06-10T19:52:45;7.33;;;5.80;;
1410;SDS011;700;51.906;8.404;2023-06-10T19:57:45;7.57;;;6.07;;
1410;SDS011;700;51.906;8.404;2023-06-10T20:02:48;6.93;;;5.80;;
1410;SDS011;700;51.906;8.404;2023-06-10T20:07:51;9.63;;;5.67;;
1410;SDS011;700;51.906;8.404;2023-06-10T20:12:54;8.67;;;7.13;;
1410;SDS011;700;51.906;8.404;2023-06-10T20:17:57;7.30;;;5.73;;
1410;SDS011;700;51.906;8.404;2023-06-10T20:23:00;9.33;;;6.10;;
1410;SDS011;700;51.906;8.404;2023-06-10T20:28:03;10.10;;;6.60;;
1410;SDS011;700;51.906;8.404;2023-06-10T20:33:06;6.80;;;6.10;;
1410;SDS011;700;51.906;8.404;2023-06-10T20:38:07;9.53;;;6.53;;
1410;SDS011;700;51.906;8.404;2023-06-10T20:43:08;7.67;;;6.73;;
1410;SDS011;700;51.906;8.404;2023-06-10T20:48:08;6.80;;;6.03;;
1410;SDS011;700;51.906;8.404;2023-06-10T20:53:09;7.50;;;6.60;;
1410;SDS011;700;51.906;8.404;2023-06-10T20:58:10;8.17;;;6.53;;
1410;SDS011;700;51.906;8.404;2023-06-10T21:03:10;7.27;;;6.57;;
1410;SDS011;700;51.906;8.404;2023-06-10T21:08:11;8.83;;;6.23;;
1410;SDS011;700;51.906;8.404;2023-06-10T21:13:14;7.97;;;5.83;;
1410;SDS011;700;51.906;8.404;2023-06-10T21:18:19;8.30;;;6.60;;
1410;SDS011;700;51.906;8.404;2023-06-10T21:23:22;8.10;;;5.97;;
1410;SDS011;700;51.906;8.404;2023-06-10T21:28:25;9.07;;;6.40;;
1410;SDS011;700;51.906;8.404;2023-06-10T21:33:25;7.83;;;6.17;;
1410;SDS011;700;51.906;8.404;2023-06-10T21:38:26;7.27;;;6.10;;
1410;SDS011;700;51.906;8.404;2023-06-10T21:43:27;6.23;;;5.63;;
1410;SDS011;700;51.906;8.404;2023-06-10T21:48:28;7.03;;;5.70;;
1410;SDS011;700;51.906;8.404;2023-06-10T21:53:29;6.73;;;6.03;;
1410;SDS011;700;51.906;8.404;2023-06-10T21:58:30;6.50;;;5.60;;
1410;SDS011;700;51.906;8.404;2023-06-10T22:03:33;7.93;;;7.13;;
1410;SDS011;700;51.906;8.404;2023-06-10T22:08:36;9.23;;;7.43;;
1410;SDS011;700;51.906;8.404;2023-06-10T22:13:39;6.90;;;6.20;;
1410;SDS011;700;51.906;8.404;2023-06-10T22:18:40;8.20;;;6.73;;
1410;SDS011;700;51.906;8.404;2023-06-10T22:23:42;7.17;;;6.47;;
1410;SDS011;700;51.906;8.404;2023-06-10T22:28:43;9.10;;;6.40;;
1410;SDS011;700;51.906;8.404;2023-06-10T22:33:44;6.77;;;5.80;;
1410;SDS011;700;51.906;8.404;2023-06-10T22:38:44;7.80;;;6.30;;
1410;SDS011;700;51.906;8.404;2023-06-10T22:43:47;8.03;;;6.47;;
1410;SDS011;700;51.906;8.404;2023-06-10T22:48:50;7.20;;;6.10;;
1410;SDS011;700;51.906;8.404;2023-06-10T22:53:52;7.47;;;6.63;;
1410;SDS011;700;51.906;8.404;2023-06-10T22:58:55;8.73;;;6.53;;
1410;SDS011;700;51.906;8.404;2023-06-10T23:03:56;6.90;;;6.20;;
1410;SDS011;700;51.906;8.404;2023-06-10T23:08:57;7.73;;;6.93;;
1410;SDS011;700;51.906;8.404;2023-06-10T23:13:58;7.40;;;6.57;;
1410;SDS011;700;51.906;8.404;2023-06-10T23:18:58;8.57;;;6.70;;
1410;SDS011;700;51.906;8.404;2023-06-10T23:24:00;7.10;;;6.40;;
1410;SDS011;700;51.906;8.404;2023-06-10T23:29:01;7.87;;;7.07;;
1410;SDS011;700;51.906;8.404;2023-06-10T23:34:02;7.10;;;6.40;;
1410;SDS011;700;51.906;8.404;2023-06-10T23:39:02;7.67;;;6.97;;
1410;SDS011;700;51.906;8.404;2023-06-10T23:44:03;8.20;;;7.23;;
1410;SDS011;700;51.906;8.404;2023-06-10T23:49:06;9.57;;;8.03;;
1410;SDS011;700;51.906;8.404;2023-06-10T23:54:08;8.80;;;7.30;;
1410;SDS011;700;51.906;8.404;2023-06-10T23:59:12;8.10;;;7.30;;
